createdAt,value
2019-01-21T00:01:36.999Z,13.47
2019-01-21T00:04:06.168Z,14.13
2019-01-21T00:06:35.920Z,9.80
2019-01-21T00:09:08.089Z,12.03
2019-01-21T00:11:37.832Z,13.70
2019-01-21T00:14:07.219Z,18.27
2019-01-21T00:16:36.294Z,12.43
2019-01-21T00:19:05.272Z,14.83
2019-01-21T00:21:34.247Z,20.63
2019-01-21T00:24:03.022Z,20.27
2019-01-21T00:26:32.055Z,15.80
2019-01-21T00:29:01.077Z,15.13
2019-01-21T00:31:29.838Z,14.27
2019-01-21T00:33:58.992Z,12.87
2019-01-21T00:36:27.714Z,15.53
2019-01-21T00:38:56.484Z,14.97
2019-01-21T00:41:25.662Z,14.43
2019-01-21T00:43:54.634Z,17.80
2019-01-21T00:46:23.394Z,16.00
2019-01-21T00:48:52.113Z,23.43
2019-01-21T00:51:22.358Z,23.07
2019-01-21T00:53:51.136Z,21.03
2019-01-21T00:56:20.322Z,16.43
2019-01-21T00:58:49.374Z,18.10
2019-01-21T01:01:19.239Z,16.60
2019-01-21T01:03:47.925Z,17.97
2019-01-21T01:06:16.716Z,15.03
2019-01-21T01:08:45.743Z,17.70
2019-01-21T01:11:14.847Z,20.23
2019-01-21T01:13:43.652Z,20.17
2019-01-21T01:16:12.339Z,33.13
2019-01-21T01:18:41.699Z,15.97
2019-01-21T01:21:10.455Z,19.80
2019-01-21T01:23:39.292Z,15.87
2019-01-21T01:26:08.344Z,20.97
2019-01-21T01:28:37.395Z,18.43
2019-01-21T01:31:06.246Z,21.10
2019-01-21T01:33:35.007Z,18.50
2019-01-21T01:36:03.803Z,19.07
2019-01-21T01:38:32.591Z,18.63
2019-01-21T01:41:01.375Z,18.03
2019-01-21T01:43:30.378Z,25.50
2019-01-21T01:45:59.162Z,22.40
2019-01-21T01:48:28.143Z,18.97
2019-01-21T01:50:57.092Z,17.40
2019-01-21T01:53:25.922Z,17.70
2019-01-21T01:55:54.616Z,18.37
2019-01-21T01:58:23.293Z,23.03
2019-01-21T02:00:51.986Z,20.07
2019-01-21T02:03:20.783Z,15.47
2019-01-21T02:05:49.721Z,19.43
2019-01-21T02:08:18.463Z,20.70
2019-01-21T02:10:47.178Z,19.83
2019-01-21T02:13:15.927Z,12.67
2019-01-21T02:15:44.636Z,16.43
2019-01-21T02:18:13.411Z,18.13
2019-01-21T02:20:44.068Z,15.40
2019-01-21T02:23:16.907Z,14.60
2019-01-21T02:25:54.446Z,15.70
2019-01-21T02:29:10.527Z,20.07
2019-01-21T02:32:22.165Z,20.90
2019-01-21T02:35:04.790Z,18.23
2019-01-21T02:38:09.443Z,15.37
2019-01-21T02:41:10.736Z,16.93
2019-01-21T02:44:14.160Z,14.47
2019-01-21T02:47:11.699Z,15.07
2019-01-21T02:50:10.366Z,16.43
2019-01-21T02:53:14.443Z,17.63
2019-01-21T02:56:30.812Z,17.47
2019-01-21T02:59:37.048Z,21.67
2019-01-21T03:02:34.266Z,16.83
2019-01-21T03:05:41.574Z,14.93
2019-01-21T03:09:05.854Z,16.80
2019-01-21T03:12:22.314Z,16.87
2019-01-21T03:15:26.728Z,18.13
2019-01-21T03:18:21.897Z,19.60
2019-01-21T03:21:04.121Z,17.43
2019-01-21T03:24:06.779Z,17.33
2019-01-21T03:26:59.626Z,21.00
2019-01-21T03:30:02.237Z,16.53
2019-01-21T03:32:54.546Z,17.03
2019-01-21T03:36:04.188Z,18.33
2019-01-21T03:38:58.305Z,17.40
2019-01-21T03:41:58.549Z,21.43
2019-01-21T03:44:35.386Z,15.23
2019-01-21T03:47:30.645Z,21.53
2019-01-21T03:50:21.360Z,20.63
2019-01-21T03:53:40.385Z,20.83
2019-01-21T03:56:14.631Z,20.83
2019-01-21T03:59:05.878Z,21.53
2019-01-21T04:02:14.230Z,20.30
2019-01-21T04:05:11.179Z,17.23
2019-01-21T04:08:05.519Z,20.07
2019-01-21T04:11:18.323Z,20.07
2019-01-21T04:14:37.263Z,14.23
2019-01-21T04:17:36.381Z,26.63
2019-01-21T04:20:36.671Z,18.20
2019-01-21T04:23:48.105Z,18.40
2019-01-21T04:26:49.114Z,21.67
2019-01-21T04:30:03.668Z,24.13
2019-01-21T04:33:20.656Z,20.87
2019-01-21T04:36:05.375Z,18.07
2019-01-21T04:38:59.883Z,20.60
2019-01-21T04:42:06.052Z,22.43
2019-01-21T04:45:16.106Z,23.00
2019-01-21T04:48:41.787Z,22.03
2019-01-21T04:51:46.988Z,28.00
2019-01-21T04:54:51.374Z,27.93
2019-01-21T04:58:13.581Z,21.73
2019-01-21T05:01:29.087Z,30.63
2019-01-21T05:04:20.756Z,21.17
2019-01-21T05:07:30.974Z,21.87
2019-01-21T05:10:31.618Z,25.33
2019-01-21T05:13:13.579Z,20.77
2019-01-21T05:16:25.654Z,21.90
2019-01-21T05:19:34.502Z,22.17
2019-01-21T05:22:33.158Z,19.90
2019-01-21T05:25:30.937Z,24.40
2019-01-21T05:28:24.483Z,20.27
2019-01-21T05:31:11.702Z,23.33
2019-01-21T05:34:21.478Z,24.03
2019-01-21T05:37:12.611Z,23.23
2019-01-21T05:40:32.727Z,23.30
2019-01-21T05:43:40.568Z,23.80
2019-01-21T05:46:46.455Z,18.10
2019-01-21T05:50:14.857Z,22.90
2019-01-21T05:53:21.611Z,22.77
2019-01-21T05:56:39.502Z,20.10
2019-01-21T05:59:49.692Z,26.83
2019-01-21T06:02:55.740Z,21.90
2019-01-21T06:06:04.853Z,22.30
2019-01-21T06:09:16.817Z,29.33
2019-01-21T06:12:14.448Z,24.17
2019-01-21T06:15:21.480Z,24.17
2019-01-21T06:18:08.335Z,22.80
2019-01-21T06:21:16.630Z,27.07
2019-01-21T06:24:23.074Z,30.03
2019-01-21T06:27:30.123Z,25.63
2019-01-21T06:30:29.426Z,35.40
2019-01-21T06:33:40.335Z,26.27
2019-01-21T06:36:28.232Z,25.87
2019-01-21T06:39:43.542Z,22.13
2019-01-21T06:43:06.086Z,26.43
2019-01-21T06:46:17.314Z,23.37
2019-01-21T06:49:32.506Z,20.40
2019-01-21T06:52:29.934Z,17.83
2019-01-21T06:55:38.284Z,28.80
2019-01-21T06:58:47.715Z,22.73
2019-01-21T07:01:55.997Z,34.83
2019-01-21T07:04:52.747Z,28.50
2019-01-21T07:07:55.426Z,25.80
2019-01-21T07:10:55.540Z,29.50
2019-01-21T07:13:53.079Z,29.47
2019-01-21T07:16:42.341Z,34.37
2019-01-21T07:19:40.126Z,22.73
2019-01-21T07:22:56.666Z,20.03
2019-01-21T07:26:04.471Z,37.60
2019-01-21T07:29:27.847Z,32.60
2019-01-21T07:32:15.158Z,26.43
2019-01-21T07:35:31.545Z,34.03
2019-01-21T07:38:28.826Z,25.33
2019-01-21T07:41:23.714Z,32.07
2019-01-21T07:44:35.320Z,30.60
2019-01-21T07:47:48.734Z,29.67
2019-01-21T07:50:38.738Z,27.80
2019-01-21T07:53:47.997Z,28.60
2019-01-21T07:56:52.995Z,28.33
2019-01-21T07:59:33.832Z,29.23
2019-01-21T08:03:09.320Z,28.67
2019-01-21T08:05:55.141Z,26.70
2019-01-21T08:08:57.707Z,24.40
2019-01-21T08:12:10.974Z,23.47
2019-01-21T08:14:46.876Z,19.43
2019-01-21T08:18:10.110Z,22.33
2019-01-21T08:20:46.850Z,25.57
2019-01-21T08:23:53.077Z,26.53
2019-01-21T08:26:27.318Z,27.23
2019-01-21T08:29:31.326Z,30.37
2019-01-21T08:32:25.554Z,21.73
2019-01-21T08:35:22.155Z,27.13
2019-01-21T08:38:14.014Z,28.20
2019-01-21T08:41:18.314Z,19.27
2019-01-21T08:44:31.599Z,25.00
2019-01-21T08:47:25.774Z,21.17
2019-01-21T08:50:42.124Z,19.60
2019-01-21T08:53:50.043Z,21.37
2019-01-21T08:56:58.913Z,23.93
2019-01-21T08:59:52.693Z,23.87
2019-01-21T09:02:44.791Z,23.60
2019-01-21T09:05:45.090Z,24.53
2019-01-21T09:08:54.342Z,25.83
2019-01-21T09:11:38.887Z,22.97
2019-01-21T09:14:17.495Z,21.80
2019-01-21T09:17:25.545Z,26.80
2019-01-21T09:20:24.264Z,24.93
2019-01-21T09:23:22.287Z,23.73
2019-01-21T09:26:09.719Z,24.37
2019-01-21T09:29:26.939Z,25.97
2019-01-21T09:32:34.155Z,25.37
2019-01-21T09:35:38.255Z,21.57
2019-01-21T09:38:34.899Z,19.20
2019-01-21T09:41:57.351Z,25.63
2019-01-21T09:45:02.165Z,24.10
2019-01-21T09:47:29.585Z,22.83
2019-01-21T09:49:58.767Z,26.53
2019-01-21T09:52:28.403Z,22.53
2019-01-21T09:54:58.158Z,25.70
2019-01-21T09:57:27.590Z,21.10
2019-01-21T10:00:01.115Z,35.57
2019-01-21T10:02:39.263Z,25.50
2019-01-21T10:05:13.787Z,24.93
2019-01-21T10:07:58.347Z,24.57
2019-01-21T10:10:45.316Z,25.70
2019-01-21T10:13:41.683Z,25.50
2019-01-21T10:16:43.226Z,29.90
2019-01-21T10:19:59.578Z,32.87
2019-01-21T10:22:50.129Z,23.40
2019-01-21T10:25:24.795Z,26.23
2019-01-21T10:28:09.927Z,26.83
2019-01-21T10:31:05.788Z,27.93
2019-01-21T10:34:27.714Z,25.30
2019-01-21T10:37:28.614Z,26.87
2019-01-21T10:40:21.267Z,32.67
2019-01-21T10:43:29.011Z,20.53
2019-01-21T10:46:33.953Z,28.80
2019-01-21T10:49:24.145Z,28.53
2019-01-21T10:52:31.158Z,33.83
2019-01-21T10:55:24.214Z,28.77
2019-01-21T10:58:04.400Z,27.60
2019-01-21T11:01:03.732Z,33.17
2019-01-21T11:04:28.360Z,27.33
2019-01-21T11:07:46.611Z,35.50
2019-01-21T11:10:32.890Z,27.40
2019-01-21T11:13:40.198Z,28.70
2019-01-21T11:16:31.626Z,34.33
2019-01-21T11:19:44.115Z,30.23
2019-01-21T11:22:28.866Z,27.23
2019-01-21T11:25:41.689Z,26.90
2019-01-21T11:28:17.153Z,33.10
2019-01-21T11:31:29.810Z,33.63
2019-01-21T11:34:50.087Z,30.63
2019-01-21T11:37:52.286Z,31.30
2019-01-21T11:41:30.248Z,27.97
2019-01-21T11:44:22.098Z,25.60
2019-01-21T11:47:12.179Z,30.50
2019-01-21T11:50:00.230Z,34.97
2019-01-21T11:52:48.758Z,29.73
2019-01-21T11:55:56.527Z,39.30
2019-01-21T11:58:53.594Z,29.33
2019-01-21T12:01:37.170Z,29.17
2019-01-21T12:04:27.530Z,35.30
2019-01-21T12:07:11.690Z,32.20
2019-01-21T12:10:11.819Z,29.90
2019-01-21T12:13:04.203Z,32.97
2019-01-21T12:16:10.187Z,22.93
2019-01-21T12:19:12.889Z,32.23
2019-01-21T12:22:28.151Z,32.00
2019-01-21T12:25:02.659Z,35.23
2019-01-21T12:28:21.774Z,29.27
2019-01-21T12:31:21.374Z,34.77
2019-01-21T12:33:56.927Z,33.43
2019-01-21T12:36:37.799Z,32.73
2019-01-21T12:39:32.139Z,31.57
2019-01-21T12:42:29.360Z,33.33
2019-01-21T12:45:27.932Z,29.47
2019-01-21T12:48:41.063Z,28.87
2019-01-21T12:51:50.062Z,34.30
2019-01-21T12:55:05.874Z,34.83
2019-01-21T12:58:06.818Z,36.80
2019-01-21T13:00:50.794Z,28.70
2019-01-21T13:04:00.110Z,34.10
2019-01-21T13:06:57.890Z,32.10
2019-01-21T13:09:51.946Z,35.57
2019-01-21T13:12:57.184Z,27.87
2019-01-21T13:15:50.563Z,28.10
2019-01-21T13:18:43.589Z,26.37
2019-01-21T13:21:36.070Z,29.70
2019-01-21T13:24:18.532Z,25.17
2019-01-21T13:27:08.411Z,27.57
2019-01-21T13:29:52.080Z,21.60
2019-01-21T13:32:58.584Z,26.40
2019-01-21T13:35:54.071Z,26.83
2019-01-21T13:39:01.291Z,27.13
2019-01-21T13:42:03.533Z,30.33
2019-01-21T13:45:08.511Z,24.13
2019-01-21T13:47:55.154Z,28.67
2019-01-21T13:50:52.249Z,28.83
2019-01-21T13:54:01.083Z,26.53
2019-01-21T13:57:05.590Z,31.00
2019-01-21T14:00:09.020Z,23.13
2019-01-21T14:03:11.984Z,28.47
2019-01-21T14:06:04.650Z,23.07
2019-01-21T14:09:09.482Z,29.00
2019-01-21T14:12:03.288Z,28.83
2019-01-21T14:14:54.905Z,27.87
2019-01-21T14:17:37.911Z,32.10
2019-01-21T14:20:19.395Z,36.23
2019-01-21T14:23:13.866Z,20.17
2019-01-21T14:26:07.145Z,30.40
2019-01-21T14:29:08.553Z,28.67
2019-01-21T14:32:30.102Z,30.53
2019-01-21T14:35:51.975Z,28.43
2019-01-21T14:38:46.037Z,23.10
2019-01-21T14:41:34.876Z,30.40
2019-01-21T14:44:32.238Z,25.37
2019-01-21T14:47:27.884Z,22.77
2019-01-21T14:50:33.563Z,25.67
2019-01-21T14:53:55.562Z,23.53
2019-01-21T14:56:56.605Z,26.17
2019-01-21T15:00:01.776Z,27.83
2019-01-21T15:03:00.769Z,27.00
2019-01-21T15:05:55.419Z,23.73
2019-01-21T15:08:49.231Z,28.53
2019-01-21T15:12:02.138Z,26.40
2019-01-21T15:15:27.403Z,26.23
2019-01-21T15:18:23.028Z,22.80
2019-01-21T15:21:06.927Z,23.20
2019-01-21T15:24:32.131Z,25.20
2019-01-21T15:27:27.559Z,22.63
2019-01-21T15:30:10.964Z,25.77
2019-01-21T15:33:30.093Z,21.47
2019-01-21T15:36:47.336Z,28.73
2019-01-21T15:39:25.107Z,33.60
2019-01-21T15:42:33.828Z,27.33
2019-01-21T15:45:35.188Z,24.57
2019-01-21T15:48:53.379Z,25.97
2019-01-21T15:51:57.822Z,27.00
2019-01-21T15:54:51.765Z,30.03
2019-01-21T15:57:48.207Z,31.67
2019-01-21T16:00:50.630Z,32.87
2019-01-21T16:03:49.737Z,26.20
2019-01-21T16:06:43.202Z,19.83
2019-01-21T16:09:46.601Z,35.67
2019-01-21T16:13:09.086Z,34.63
2019-01-21T16:16:19.368Z,29.93
2019-01-21T16:18:52.796Z,28.87
2019-01-21T16:21:56.127Z,26.17
2019-01-21T16:24:56.107Z,39.97
2019-01-21T16:27:41.101Z,25.60
2019-01-21T16:30:50.265Z,25.83
2019-01-21T16:33:50.029Z,21.73
2019-01-21T16:36:40.112Z,31.37
2019-01-21T16:39:59.431Z,30.87
2019-01-21T16:42:26.998Z,27.67
2019-01-21T16:44:55.739Z,31.00
2019-01-21T16:47:24.766Z,31.63
2019-01-21T16:49:53.528Z,30.03
2019-01-21T16:52:22.164Z,31.37
2019-01-21T16:54:50.887Z,25.57
2019-01-21T16:57:20.053Z,26.70
2019-01-21T16:59:48.818Z,28.90
2019-01-21T17:02:18.146Z,25.27
2019-01-21T17:04:47.229Z,31.10
2019-01-21T17:07:15.936Z,25.87
2019-01-21T17:09:44.724Z,30.20
2019-01-21T17:12:13.463Z,28.83
2019-01-21T17:14:42.365Z,27.73
2019-01-21T17:19:41.895Z,32.53
2019-01-21T17:22:13.483Z,30.40
2019-01-21T17:24:43.569Z,32.50
2019-01-21T17:27:12.638Z,31.60
2019-01-21T17:29:41.315Z,34.23
2019-01-21T17:32:11.710Z,27.03
2019-01-21T17:34:40.450Z,30.70
2019-01-21T17:37:09.082Z,24.87
2019-01-21T17:39:37.909Z,31.23
2019-01-21T17:42:21.639Z,37.50
2019-01-21T17:44:42.753Z,38.00
2019-01-21T17:47:12.966Z,39.20
2019-01-21T17:49:42.150Z,33.83
2019-01-21T17:52:10.891Z,20.03
2019-01-21T17:54:41.419Z,41.23
2019-01-21T17:57:10.167Z,33.47
2019-01-21T17:59:40.024Z,34.77
2019-01-21T18:02:08.818Z,34.43
2019-01-21T18:04:37.790Z,26.87
2019-01-21T18:07:06.656Z,32.63
2019-01-21T18:09:37.102Z,36.60
2019-01-21T18:12:05.817Z,34.03
2019-01-21T18:14:34.806Z,36.63
2019-01-21T18:17:03.761Z,51.00
2019-01-21T18:22:31.806Z,33.53
2019-01-21T18:25:00.750Z,29.57
2019-01-21T18:27:29.898Z,36.53
2019-01-21T18:29:59.378Z,39.80
2019-01-21T18:32:28.218Z,34.13
2019-01-21T18:34:56.973Z,33.00
2019-01-21T18:37:26.132Z,37.03
2019-01-21T18:39:56.071Z,41.33
2019-01-21T18:42:24.819Z,43.27
2019-01-21T18:44:53.620Z,43.60
2019-01-21T18:47:22.419Z,34.37
2019-01-21T18:49:51.369Z,35.70
2019-01-21T18:52:20.653Z,32.83
2019-01-21T18:54:49.568Z,27.60
2019-01-21T18:57:18.282Z,30.67
2019-01-21T18:59:47.036Z,36.43
2019-01-21T19:02:15.773Z,40.33
2019-01-21T19:04:44.444Z,43.97
2019-01-21T19:07:13.242Z,31.13
2019-01-21T19:09:42.257Z,36.37
2019-01-21T19:12:11.230Z,35.53
2019-01-21T19:14:39.906Z,33.87
2019-01-21T19:17:09.066Z,32.40
2019-01-21T19:19:37.819Z,41.00
2019-01-21T19:22:06.666Z,36.60
2019-01-21T19:24:35.774Z,38.43
2019-01-21T19:27:04.560Z,30.27
2019-01-21T19:29:33.386Z,30.63
2019-01-21T19:32:02.291Z,40.83
2019-01-21T19:34:31.486Z,29.63
2019-01-21T19:37:00.530Z,43.40
2019-01-21T19:39:29.227Z,29.73
2019-01-21T19:41:58.239Z,37.10
2019-01-21T19:44:27.238Z,30.03
2019-01-21T19:46:56.071Z,34.50
2019-01-21T19:49:24.787Z,36.80
2019-01-21T19:51:53.586Z,38.83
2019-01-21T19:54:22.318Z,32.53
2019-01-21T19:56:51.179Z,32.37
2019-01-21T19:59:19.923Z,39.17
2019-01-21T20:01:48.642Z,36.80
2019-01-21T20:04:17.789Z,33.40
2019-01-21T20:06:46.618Z,46.10
2019-01-21T20:09:15.397Z,32.57
2019-01-21T20:11:44.217Z,35.07
2019-01-21T20:14:13.043Z,40.50
2019-01-21T20:16:42.141Z,47.07
2019-01-21T20:19:11.242Z,38.50
2019-01-21T20:21:39.902Z,36.83
2019-01-21T20:24:09.512Z,45.90
2019-01-21T20:26:38.624Z,38.07
2019-01-21T20:29:07.642Z,40.80
2019-01-21T20:31:36.680Z,33.90
2019-01-21T20:34:05.567Z,36.60
2019-01-21T20:36:34.588Z,38.23
2019-01-21T20:39:05.058Z,42.50
2019-01-21T20:41:34.209Z,35.83
2019-01-21T20:44:02.897Z,42.73
2019-01-21T20:46:31.586Z,38.60
2019-01-21T20:49:00.723Z,43.73
2019-01-21T20:51:29.450Z,40.80
2019-01-21T20:53:58.507Z,37.10
2019-01-21T20:56:27.660Z,48.10
2019-01-21T20:58:57.331Z,40.17
2019-01-21T21:01:26.624Z,39.03
2019-01-21T21:03:55.390Z,44.90
2019-01-21T21:06:24.550Z,36.20
2019-01-21T21:08:53.279Z,38.80
2019-01-21T21:11:22.043Z,37.07
2019-01-21T21:13:50.826Z,29.17
2019-01-21T21:16:20.042Z,45.20
2019-01-21T21:18:48.817Z,38.27
2019-01-21T21:21:17.579Z,39.10
2019-01-21T21:23:46.592Z,43.70
2019-01-21T21:26:15.607Z,44.23
2019-01-21T21:28:44.994Z,40.47
2019-01-21T21:31:13.728Z,39.73
2019-01-21T21:33:43.181Z,40.17
2019-01-21T21:36:12.211Z,44.00
2019-01-21T21:38:41.107Z,38.03
2019-01-21T21:41:09.983Z,35.63
2019-01-21T21:43:38.746Z,39.47
2019-01-21T21:46:07.579Z,35.47
2019-01-21T21:48:36.655Z,43.50
2019-01-21T21:51:05.486Z,45.53
2019-01-21T21:53:34.724Z,41.83
2019-01-21T21:57:15.507Z,39.17
2019-01-21T21:59:44.498Z,38.00
2019-01-21T22:02:13.226Z,42.47
2019-01-21T22:04:42.130Z,40.43
2019-01-21T22:07:11.298Z,41.27
2019-01-21T22:09:40.231Z,45.90
2019-01-21T22:12:08.974Z,47.80
2019-01-21T22:14:37.786Z,39.10
2019-01-21T22:17:06.502Z,38.57
2019-01-21T22:19:35.547Z,31.97
2019-01-21T22:22:04.408Z,28.83
2019-01-21T22:24:33.395Z,42.10
2019-01-21T22:27:02.422Z,43.27
2019-01-21T22:29:31.487Z,36.40
2019-01-21T22:32:00.167Z,35.07
2019-01-21T22:34:28.921Z,37.27
2019-01-21T22:36:57.779Z,37.17
2019-01-21T22:39:26.506Z,41.10
2019-01-21T22:41:55.242Z,45.43
2019-01-21T22:44:24.027Z,43.50
2019-01-21T22:46:53.238Z,34.57
2019-01-21T22:49:21.968Z,52.60
2019-01-21T22:51:50.849Z,40.13
2019-01-21T22:54:19.643Z,38.47
2019-01-21T22:56:48.436Z,45.17
2019-01-21T22:59:17.546Z,41.30
2019-01-21T23:01:46.433Z,41.33
2019-01-21T23:04:15.165Z,43.53
2019-01-21T23:06:44.042Z,40.87
2019-01-21T23:09:12.874Z,41.57
2019-01-21T23:11:41.511Z,42.63
2019-01-21T23:14:10.371Z,33.60
2019-01-21T23:16:39.180Z,38.83
2019-01-21T23:19:07.839Z,41.77
2019-01-21T23:21:38.498Z,45.83
2019-01-21T23:24:07.719Z,44.33
2019-01-21T23:26:36.703Z,37.83
2019-01-21T23:29:05.594Z,53.17
2019-01-21T23:31:34.401Z,38.40
2019-01-21T23:34:22.423Z,44.03
2019-01-21T23:36:51.139Z,36.30
2019-01-21T23:39:19.808Z,33.97
2019-01-21T23:41:49.011Z,41.00
2019-01-21T23:44:17.713Z,40.80
2019-01-21T23:46:46.462Z,40.63
2019-01-21T23:49:15.530Z,32.50
2019-01-21T23:51:44.389Z,47.37
2019-01-21T23:54:13.130Z,38.70
2019-01-21T23:56:41.843Z,43.17
2019-01-21T23:59:10.626Z,39.73
